createdAt,value
2023-09-09T00:02:23.385Z,86.30
2023-09-09T00:04:53.922Z,86.50
2023-09-09T00:07:21.733Z,86.50
2023-09-09T00:09:50.593Z,86.60
2023-09-09T00:12:18.356Z,86.70
2023-09-09T00:14:46.131Z,86.80
2023-09-09T00:17:13.779Z,86.90
2023-09-09T00:19:41.469Z,86.90
2023-09-09T00:22:09.107Z,86.90
2023-09-09T00:24:37.361Z,86.90
2023-09-09T00:27:05.296Z,86.90
2023-09-09T00:29:34.712Z,87.00
2023-09-09T00:32:02.433Z,87.00
2023-09-09T00:34:30.278Z,87.00
2023-09-09T00:36:57.995Z,87.10
2023-09-09T00:39:25.733Z,87.20
2023-09-09T00:41:53.428Z,87.20
2023-09-09T00:44:21.117Z,87.20
2023-09-09T00:46:49.071Z,87.20
2023-09-09T00:49:16.936Z,87.30
2023-09-09T00:51:45.672Z,87.40
2023-09-09T00:54:13.454Z,87.40
2023-09-09T00:56:42.452Z,87.40
2023-09-09T00:59:13.407Z,87.50
2023-09-09T01:01:41.218Z,87.60
2023-09-09T01:04:09.451Z,87.60
2023-09-09T01:06:39.870Z,87.70
2023-09-09T01:09:09.662Z,87.80
2023-09-09T01:11:37.514Z,87.80
2023-09-09T01:14:05.457Z,87.90
2023-09-09T01:16:33.731Z,88.00
2023-09-09T01:19:02.333Z,88.10
2023-09-09T01:21:32.850Z,88.30
2023-09-09T01:24:00.664Z,88.20
2023-09-09T01:26:28.556Z,88.30
2023-09-09T01:28:56.512Z,88.50
2023-09-09T01:31:24.257Z,88.60
2023-09-09T01:33:56.636Z,88.60
2023-09-09T01:36:24.444Z,88.70
2023-09-09T01:38:52.277Z,88.60
2023-09-09T01:41:20.047Z,88.70
2023-09-09T01:43:48.070Z,88.70
2023-09-09T01:46:15.923Z,88.80
2023-09-09T01:48:43.646Z,88.80
2023-09-09T01:51:11.302Z,88.90
2023-09-09T01:53:39.937Z,88.90
2023-09-09T01:56:07.884Z,88.80
2023-09-09T01:58:35.748Z,88.70
2023-09-09T02:01:03.425Z,88.80
2023-09-09T02:03:32.004Z,89.00
2023-09-09T02:06:00.242Z,89.00
2023-09-09T02:08:27.915Z,89.00
2023-09-09T02:10:55.606Z,89.10
2023-09-09T02:13:23.385Z,89.10
2023-09-09T02:15:51.146Z,89.10
2023-09-09T02:18:21.467Z,89.20
2023-09-09T02:20:58.763Z,89.20
2023-09-09T02:23:26.674Z,89.30
2023-09-09T02:25:54.403Z,89.40
2023-09-09T02:28:22.146Z,89.50
2023-09-09T02:30:50.068Z,89.60
2023-09-09T02:33:18.128Z,89.60
2023-09-09T02:35:46.251Z,89.70
2023-09-09T02:38:13.965Z,89.70
2023-09-09T02:40:41.647Z,89.70
2023-09-09T02:43:09.405Z,89.80
2023-09-09T02:45:37.069Z,89.80
2023-09-09T02:48:05.752Z,89.90
2023-09-09T02:50:34.127Z,90.00
2023-09-09T02:53:01.801Z,90.00
2023-09-09T02:55:29.784Z,89.80
2023-09-09T02:57:58.268Z,89.80
2023-09-09T03:00:26.814Z,89.90
2023-09-09T03:02:54.737Z,90.00
2023-09-09T03:05:22.585Z,90.10
2023-09-09T03:07:50.332Z,90.10
2023-09-09T03:10:18.196Z,90.10
2023-09-09T03:12:45.878Z,90.10
2023-09-09T03:15:13.580Z,90.10
2023-09-09T03:17:41.315Z,90.10
2023-09-09T03:20:10.151Z,90.10
2023-09-09T03:22:37.757Z,90.20
2023-09-09T03:25:09.092Z,90.30
2023-09-09T03:27:36.859Z,90.10
2023-09-09T03:30:05.316Z,90.20
2023-09-09T03:32:33.201Z,90.20
2023-09-09T03:35:01.075Z,90.20
2023-09-09T03:37:28.733Z,90.20
2023-09-09T03:39:56.632Z,90.30
2023-09-09T03:42:24.408Z,90.30
2023-09-09T03:44:54.186Z,90.40
2023-09-09T03:47:23.527Z,90.40
2023-09-09T03:49:54.598Z,90.40
2023-09-09T03:52:22.683Z,90.40
2023-09-09T03:54:50.511Z,90.50
2023-09-09T03:57:18.521Z,90.40
2023-09-09T03:59:48.310Z,90.40
2023-09-09T04:02:16.015Z,90.40
2023-09-09T04:04:44.099Z,90.50
2023-09-09T04:07:11.847Z,90.50
2023-09-09T04:09:42.178Z,90.50
2023-09-09T04:12:11.292Z,90.60
2023-09-09T04:14:43.203Z,90.60
2023-09-09T04:17:11.424Z,90.70
2023-09-09T04:19:39.138Z,90.70
2023-09-09T04:22:06.910Z,90.80
2023-09-09T04:24:35.427Z,90.90
2023-09-09T04:27:03.720Z,91.00
2023-09-09T04:29:31.679Z,91.00
2023-09-09T04:32:00.061Z,90.90
2023-09-09T04:34:27.702Z,91.00
2023-09-09T04:36:56.119Z,90.90
2023-09-09T04:39:23.942Z,90.90
2023-09-09T04:41:51.719Z,90.90
2023-09-09T04:44:22.132Z,90.80
2023-09-09T04:46:50.379Z,90.80
2023-09-09T04:49:18.595Z,90.80
2023-09-09T04:51:50.248Z,90.70
2023-09-09T04:54:19.406Z,90.80
2023-09-09T04:56:48.299Z,90.90
2023-09-09T04:59:16.673Z,90.90
2023-09-09T05:01:44.389Z,90.90
2023-09-09T05:04:12.996Z,90.90
2023-09-09T05:06:40.609Z,90.90
2023-09-09T05:09:08.846Z,90.90
2023-09-09T05:11:37.734Z,90.90
2023-09-09T05:14:08.160Z,90.90
2023-09-09T05:16:38.382Z,90.90
2023-09-09T05:19:07.596Z,90.90
2023-09-09T05:21:35.257Z,90.90
2023-09-09T05:24:03.875Z,91.00
2023-09-09T05:26:32.226Z,91.00
2023-09-09T05:29:02.416Z,91.10
2023-09-09T05:31:30.167Z,91.00
2023-09-09T05:33:58.010Z,91.00
2023-09-09T05:36:26.491Z,91.00
2023-09-09T05:39:00.617Z,91.10
2023-09-09T05:41:30.484Z,91.10
2023-09-09T05:43:59.150Z,91.20
2023-09-09T05:46:27.083Z,91.10
2023-09-09T05:48:55.028Z,91.10
2023-09-09T05:51:22.780Z,91.20
2023-09-09T05:53:52.790Z,91.20
2023-09-09T05:56:20.842Z,91.30
2023-09-09T05:58:48.804Z,91.30
2023-09-09T06:01:16.873Z,91.40
2023-09-09T06:03:44.966Z,91.40
2023-09-09T06:06:12.940Z,91.40
2023-09-09T06:08:40.740Z,91.50
2023-09-09T06:11:08.685Z,91.50
2023-09-09T06:13:37.058Z,91.50
2023-09-09T06:16:05.149Z,91.50
2023-09-09T06:18:32.759Z,91.50
2023-09-09T06:21:01.097Z,91.40
2023-09-09T06:23:29.259Z,91.40
2023-09-09T06:25:58.140Z,91.40
2023-09-09T06:28:34.951Z,91.40
2023-09-09T06:31:03.302Z,91.40
2023-09-09T06:33:31.209Z,91.40
2023-09-09T06:35:59.074Z,91.40
2023-09-09T06:38:30.140Z,91.20
2023-09-09T06:40:57.736Z,91.10
2023-09-09T06:43:25.534Z,91.00
2023-09-09T06:45:53.401Z,90.80
2023-09-09T06:48:22.325Z,90.70
2023-09-09T06:50:50.555Z,90.40
2023-09-09T06:53:21.518Z,90.30
2023-09-09T06:55:50.159Z,90.10
2023-09-09T06:58:17.893Z,89.90
2023-09-09T07:00:52.791Z,89.60
2023-09-09T07:03:21.439Z,89.40
2023-09-09T07:05:50.583Z,89.10
2023-09-09T07:08:20.430Z,88.90
2023-09-09T07:10:52.557Z,88.70
2023-09-09T07:13:26.585Z,88.70
2023-09-09T07:15:55.185Z,88.70
2023-09-09T07:18:23.828Z,88.50
2023-09-09T07:20:51.373Z,88.20
2023-09-09T07:23:22.616Z,87.70
2023-09-09T07:25:50.374Z,87.60
2023-09-09T07:28:18.087Z,87.30
2023-09-09T07:30:45.913Z,87.10
2023-09-09T07:33:13.582Z,86.80
2023-09-09T07:35:41.402Z,86.40
2023-09-09T07:38:09.087Z,86.00
2023-09-09T07:40:36.864Z,85.90
2023-09-09T07:43:04.691Z,85.70
2023-09-09T07:45:32.292Z,85.60
2023-09-09T07:48:00.076Z,85.60
2023-09-09T07:50:27.844Z,85.50
2023-09-09T07:52:55.656Z,85.30
2023-09-09T07:55:23.257Z,85.00
2023-09-09T07:57:51.158Z,84.80
2023-09-09T08:00:18.905Z,84.70
2023-09-09T08:02:46.640Z,84.50
2023-09-09T08:05:14.617Z,84.30
2023-09-09T08:07:43.784Z,84.00
2023-09-09T08:10:13.498Z,83.50
2023-09-09T08:12:41.216Z,83.00
2023-09-09T08:15:11.324Z,82.40
2023-09-09T08:17:39.694Z,82.00
2023-09-09T08:20:09.173Z,81.30
2023-09-09T08:22:37.402Z,80.90
2023-09-09T08:25:06.097Z,80.50
2023-09-09T08:27:33.825Z,79.90
2023-09-09T08:30:01.475Z,79.40
2023-09-09T08:32:29.074Z,78.90
2023-09-09T08:34:56.859Z,78.30
2023-09-09T08:37:24.579Z,78.00
2023-09-09T08:39:56.418Z,77.40
2023-09-09T08:42:49.133Z,76.80
2023-09-09T08:45:47.500Z,76.10
2023-09-09T08:48:19.905Z,75.10
2023-09-09T08:50:51.638Z,75.20
2023-09-09T08:53:21.001Z,74.90
2023-09-09T08:55:50.035Z,74.40
2023-09-09T08:58:19.324Z,73.90
2023-09-09T09:00:49.400Z,73.50
2023-09-09T09:03:17.772Z,73.00
2023-09-09T09:05:47.472Z,73.00
2023-09-09T09:08:15.165Z,72.80
2023-09-09T09:10:43.270Z,72.30
2023-09-09T09:13:10.914Z,71.30
2023-09-09T09:15:39.824Z,71.00
2023-09-09T09:18:09.525Z,70.90
2023-09-09T09:20:39.768Z,70.20
2023-09-09T09:23:11.455Z,69.80
2023-09-09T09:25:45.846Z,69.30
2023-09-09T09:28:14.742Z,68.40
2023-09-09T09:30:43.060Z,68.50
2023-09-09T09:33:10.877Z,68.80
2023-09-09T09:35:38.723Z,68.50
2023-09-09T09:38:07.743Z,68.20
2023-09-09T09:40:36.458Z,67.90
2023-09-09T09:43:04.387Z,68.10
2023-09-09T09:45:32.498Z,68.20
2023-09-09T09:48:00.474Z,68.30
2023-09-09T09:50:35.372Z,68.30
2023-09-09T09:53:05.065Z,68.80
2023-09-09T09:55:34.693Z,68.90
2023-09-09T09:58:04.800Z,68.80
2023-09-09T10:00:32.867Z,67.90
2023-09-09T10:03:01.509Z,67.50
2023-09-09T10:05:30.555Z,67.20
2023-09-09T10:08:15.043Z,67.60
2023-09-09T10:10:53.096Z,67.90
2023-09-09T10:13:52.771Z,68.40
2023-09-09T10:19:54.513Z,68.30
2023-09-09T10:22:23.141Z,68.40
2023-09-09T10:24:53.567Z,68.40
2023-09-09T10:27:21.525Z,67.00
2023-09-09T10:29:51.848Z,66.10
2023-09-09T10:32:20.949Z,65.30
2023-09-09T10:34:53.205Z,65.70
2023-09-09T10:37:24.631Z,66.10
2023-09-09T10:39:53.114Z,66.20
2023-09-09T10:42:21.113Z,65.80
2023-09-09T10:44:51.708Z,65.90
2023-09-09T10:47:20.494Z,66.30
2023-09-09T10:49:48.305Z,65.90
2023-09-09T10:52:32.999Z,65.90
2023-09-09T10:55:29.169Z,65.70
2023-09-09T10:57:58.359Z,65.40
2023-09-09T11:00:41.268Z,64.80
2023-09-09T11:03:14.550Z,65.00
2023-09-09T11:06:01.328Z,64.20
2023-09-09T11:08:30.867Z,63.50
2023-09-09T11:11:18.428Z,64.10
2023-09-09T11:14:00.473Z,63.50
2023-09-09T11:16:29.415Z,63.20
2023-09-09T11:19:01.621Z,60.70
2023-09-09T11:21:31.351Z,59.40
2023-09-09T11:23:59.592Z,59.70
2023-09-09T11:26:28.856Z,60.60
2023-09-09T11:28:56.849Z,61.30
2023-09-09T11:31:25.679Z,60.60
2023-09-09T11:33:56.817Z,60.40
2023-09-09T11:36:24.612Z,60.30
2023-09-09T11:38:52.334Z,60.10
2023-09-09T11:41:21.663Z,60.20
2023-09-09T11:43:59.194Z,59.80
2023-09-09T11:46:45.940Z,59.60
2023-09-09T11:49:14.640Z,59.90
2023-09-09T11:51:42.362Z,59.80
2023-09-09T11:54:12.999Z,59.50
2023-09-09T11:56:41.678Z,59.10
2023-09-09T11:59:10.417Z,59.00
2023-09-09T12:01:42.548Z,58.40
2023-09-09T12:04:11.698Z,57.50
2023-09-09T12:06:42.326Z,57.60
2023-09-09T12:09:10.723Z,57.50
2023-09-09T12:11:41.314Z,57.90
2023-09-09T12:14:10.771Z,56.80
2023-09-09T12:16:40.594Z,56.70
2023-09-09T12:19:17.594Z,56.70
2023-09-09T12:21:50.511Z,56.60
2023-09-09T12:24:18.326Z,56.50
2023-09-09T12:26:53.777Z,55.90
2023-09-09T12:29:21.911Z,54.70
2023-09-09T12:31:54.102Z,54.50
2023-09-09T12:34:23.769Z,53.70
2023-09-09T12:36:56.225Z,53.90
2023-09-09T12:39:26.163Z,53.80
2023-09-09T12:42:04.901Z,53.30
2023-09-09T12:44:34.177Z,53.20
2023-09-09T12:47:06.382Z,53.10
2023-09-09T12:49:34.507Z,52.90
2023-09-09T12:52:02.148Z,52.60
2023-09-09T12:54:29.926Z,52.20
2023-09-09T12:56:57.505Z,52.40
2023-09-09T12:59:25.072Z,52.20
2023-09-09T13:01:54.876Z,52.30
2023-09-09T13:04:25.827Z,52.30
2023-09-09T13:06:54.016Z,52.70
2023-09-09T13:09:21.787Z,53.10
2023-09-09T13:11:49.622Z,53.00
2023-09-09T13:14:25.277Z,52.90
2023-09-09T13:16:55.559Z,53.00
2023-09-09T13:19:25.779Z,52.40
2023-09-09T13:21:55.728Z,51.90
2023-09-09T13:24:23.447Z,51.50
2023-09-09T13:26:51.005Z,51.30
2023-09-09T13:29:19.816Z,50.80
2023-09-09T13:31:56.588Z,50.60
2023-09-09T13:34:24.323Z,50.60
2023-09-09T13:36:51.987Z,50.50
2023-09-09T13:39:19.621Z,49.90
2023-09-09T13:41:47.425Z,49.80
2023-09-09T13:44:15.212Z,50.20
2023-09-09T13:46:43.025Z,50.10
2023-09-09T13:49:10.629Z,49.90
2023-09-09T13:51:38.245Z,49.90
2023-09-09T13:54:06.122Z,49.70
2023-09-09T13:56:33.859Z,49.50
2023-09-09T13:59:01.350Z,49.70
2023-09-09T14:01:28.977Z,50.00
2023-09-09T14:03:56.923Z,49.90
2023-09-09T14:06:26.296Z,50.00
2023-09-09T14:08:54.591Z,50.10
2023-09-09T14:11:22.487Z,49.60
2023-09-09T14:13:50.215Z,50.50
2023-09-09T14:16:17.982Z,51.10
2023-09-09T14:18:45.734Z,50.50
2023-09-09T14:21:13.489Z,50.10
2023-09-09T14:23:42.137Z,49.90
2023-09-09T14:26:09.812Z,49.90
2023-09-09T14:28:37.664Z,50.10
2023-09-09T14:31:05.506Z,50.10
2023-09-09T14:33:33.269Z,50.20
2023-09-09T14:36:00.899Z,50.20
2023-09-09T14:38:28.492Z,50.20
2023-09-09T14:40:56.384Z,50.20
2023-09-09T14:43:24.004Z,50.20
2023-09-09T14:45:51.594Z,50.40
2023-09-09T14:48:19.269Z,50.30
2023-09-09T14:50:47.095Z,50.10
2023-09-09T14:53:14.891Z,50.30
2023-09-09T14:55:42.667Z,50.30
2023-09-09T14:58:10.313Z,49.90
2023-09-09T15:00:38.116Z,49.90
2023-09-09T15:03:05.929Z,49.80
2023-09-09T15:05:33.592Z,50.00
2023-09-09T15:08:01.284Z,50.30
2023-09-09T15:10:28.920Z,50.50
2023-09-09T15:12:56.673Z,50.40
2023-09-09T15:15:24.267Z,50.10
2023-09-09T15:17:51.818Z,50.00
2023-09-09T15:20:19.562Z,50.00
2023-09-09T15:22:47.247Z,49.70
2023-09-09T15:25:14.920Z,49.30
2023-09-09T15:27:42.594Z,49.20
2023-09-09T15:30:11.404Z,49.20
2023-09-09T15:32:39.190Z,48.80
2023-09-09T15:35:07.224Z,48.70
2023-09-09T15:37:34.789Z,49.40
2023-09-09T15:40:02.330Z,49.90
2023-09-09T15:42:30.067Z,50.50
2023-09-09T15:44:57.708Z,51.00
2023-09-09T15:47:25.465Z,51.20
2023-09-09T15:49:53.135Z,51.80
2023-09-09T15:52:20.818Z,52.40
2023-09-09T15:54:48.578Z,52.80
2023-09-09T15:57:16.162Z,53.30
2023-09-09T15:59:43.867Z,53.40
2023-09-09T16:02:11.748Z,53.20
2023-09-09T16:04:39.673Z,53.00
2023-09-09T16:07:08.897Z,53.60
2023-09-09T16:09:43.340Z,53.80
2023-09-09T16:12:11.868Z,54.00
2023-09-09T16:14:39.471Z,54.30
2023-09-09T16:17:07.979Z,54.60
2023-09-09T16:19:38.622Z,54.60
2023-09-09T16:22:06.246Z,54.60
2023-09-09T16:24:33.947Z,54.90
2023-09-09T16:27:01.788Z,55.50
2023-09-09T16:29:29.506Z,56.10
2023-09-09T16:31:57.263Z,56.60
2023-09-09T16:34:25.138Z,57.00
2023-09-09T16:36:54.095Z,57.60
2023-09-09T16:39:23.769Z,58.10
2023-09-09T16:41:51.441Z,58.50
2023-09-09T16:44:19.059Z,59.00
2023-09-09T16:46:46.825Z,59.60
2023-09-09T16:49:15.134Z,60.00
2023-09-09T16:51:43.184Z,60.60
2023-09-09T16:54:10.760Z,61.00
2023-09-09T16:56:38.322Z,61.20
2023-09-09T16:59:07.147Z,61.40
2023-09-09T17:01:37.184Z,61.80
2023-09-09T17:04:05.522Z,62.10
2023-09-09T17:06:33.210Z,62.40
2023-09-09T17:09:00.920Z,62.80
2023-09-09T17:11:28.884Z,63.00
2023-09-09T17:13:57.523Z,63.10
2023-09-09T17:16:25.345Z,63.30
2023-09-09T17:18:55.669Z,63.70
2023-09-09T17:21:23.255Z,63.80
2023-09-09T17:23:50.807Z,64.10
2023-09-09T17:26:18.389Z,64.20
2023-09-09T17:28:46.073Z,64.40
2023-09-09T17:31:13.774Z,64.60
2023-09-09T17:33:43.045Z,64.70
2023-09-09T17:36:10.752Z,64.80
2023-09-09T17:38:40.431Z,64.90
2023-09-09T17:41:08.465Z,65.00
2023-09-09T17:43:36.266Z,65.10
2023-09-09T17:46:05.328Z,65.40
2023-09-09T17:48:33.008Z,66.50
2023-09-09T17:51:00.701Z,68.80
2023-09-09T17:53:28.342Z,71.40
2023-09-09T17:55:57.288Z,73.20
2023-09-09T17:58:25.032Z,74.40
2023-09-09T18:00:55.160Z,75.50
2023-09-09T18:03:24.942Z,76.60
2023-09-09T18:05:52.766Z,77.40
2023-09-09T18:08:20.381Z,77.90
2023-09-09T18:10:48.122Z,78.30
2023-09-09T18:13:15.874Z,78.80
2023-09-09T18:15:43.585Z,79.10
2023-09-09T18:18:11.373Z,79.40
2023-09-09T18:20:39.045Z,79.80
2023-09-09T18:23:06.652Z,80.20
2023-09-09T18:25:34.361Z,80.50
2023-09-09T18:28:01.990Z,80.80
2023-09-09T18:30:29.693Z,81.10
2023-09-09T18:32:57.312Z,81.40
2023-09-09T18:35:25.120Z,81.70
2023-09-09T18:37:52.855Z,81.90
2023-09-09T18:40:20.493Z,82.20
2023-09-09T18:42:49.151Z,82.40
2023-09-09T18:45:17.191Z,82.70
2023-09-09T18:47:44.846Z,82.90
2023-09-09T18:50:13.399Z,83.10
2023-09-09T18:52:41.004Z,83.30
2023-09-09T18:55:09.169Z,83.50
2023-09-09T18:57:36.822Z,83.80
2023-09-09T19:00:06.284Z,84.10
2023-09-09T19:02:34.322Z,84.30
2023-09-09T19:05:02.275Z,84.50
2023-09-09T19:07:35.230Z,84.70
2023-09-09T19:10:03.567Z,84.90
2023-09-09T19:12:31.238Z,85.00
2023-09-09T19:14:59.343Z,85.20
2023-09-09T19:17:28.677Z,84.90
2023-09-09T19:19:57.384Z,85.00
2023-09-09T19:22:26.186Z,85.10
2023-09-09T19:24:55.636Z,85.40
2023-09-09T19:27:24.165Z,85.70
2023-09-09T19:29:52.175Z,85.80
2023-09-09T19:32:19.851Z,85.90
2023-09-09T19:34:48.694Z,85.70
2023-09-09T19:37:16.509Z,85.70
2023-09-09T19:39:44.211Z,85.70
2023-09-09T19:42:11.873Z,85.80
2023-09-09T19:44:39.519Z,85.70
2023-09-09T19:47:07.206Z,85.70
2023-09-09T19:49:35.709Z,85.60
2023-09-09T19:52:03.460Z,85.60
2023-09-09T19:54:31.115Z,85.50
2023-09-09T19:56:58.770Z,85.50
2023-09-09T19:59:26.883Z,85.30
2023-09-09T20:01:54.562Z,85.20
2023-09-09T20:04:22.831Z,85.10
2023-09-09T20:06:50.458Z,84.90
2023-09-09T20:09:18.067Z,84.80
2023-09-09T20:11:45.768Z,84.80
2023-09-09T20:14:14.425Z,84.70
2023-09-09T20:16:42.091Z,84.70
2023-09-09T20:19:10.536Z,84.70
2023-09-09T20:21:38.078Z,84.70
2023-09-09T20:24:05.837Z,84.70
2023-09-09T20:26:33.759Z,84.70
2023-09-09T20:29:02.763Z,84.80
2023-09-09T20:31:30.473Z,85.00
2023-09-09T20:33:58.243Z,85.10
2023-09-09T20:36:25.904Z,85.10
2023-09-09T20:38:53.579Z,85.20
2023-09-09T20:41:21.205Z,85.20
2023-09-09T20:43:49.586Z,85.20
2023-09-09T20:46:19.131Z,85.30
2023-09-09T20:48:46.761Z,85.20
2023-09-09T20:51:14.412Z,85.20
2023-09-09T20:53:42.043Z,85.30
2023-09-09T20:56:13.657Z,85.30
2023-09-09T20:58:42.348Z,85.30
2023-09-09T21:01:10.376Z,85.30
2023-09-09T21:03:38.253Z,85.20
2023-09-09T21:06:06.109Z,85.20
2023-09-09T21:08:33.981Z,85.20
2023-09-09T21:11:01.691Z,85.30
2023-09-09T21:13:29.705Z,85.30
2023-09-09T21:15:59.371Z,85.50
2023-09-09T21:18:33.618Z,85.60
2023-09-09T21:21:03.737Z,85.70
2023-09-09T21:23:31.472Z,85.70
2023-09-09T21:26:00.076Z,85.80
2023-09-09T21:28:27.776Z,85.90
2023-09-09T21:30:55.481Z,85.90
2023-09-09T21:33:23.363Z,85.80
2023-09-09T21:35:51.853Z,85.90
2023-09-09T21:38:19.514Z,86.00
2023-09-09T21:40:47.209Z,86.10
2023-09-09T21:43:17.082Z,86.20
2023-09-09T21:45:44.998Z,86.30
2023-09-09T21:48:12.614Z,86.40
2023-09-09T21:50:40.951Z,86.50
2023-09-09T21:53:08.699Z,86.70
2023-09-09T21:55:36.424Z,86.80
2023-09-09T21:58:04.395Z,87.10
2023-09-09T22:00:34.273Z,87.20
2023-09-09T22:03:02.117Z,87.20
2023-09-09T22:05:30.322Z,87.40
2023-09-09T22:08:00.699Z,87.50
2023-09-09T22:10:28.474Z,87.60
2023-09-09T22:12:56.154Z,87.70
2023-09-09T22:15:23.861Z,87.60
2023-09-09T22:17:51.616Z,87.60
2023-09-09T22:20:20.609Z,87.70
2023-09-09T22:22:50.973Z,87.80
2023-09-09T22:25:18.781Z,87.70
2023-09-09T22:27:46.514Z,87.80
2023-09-09T22:30:14.281Z,87.80
2023-09-09T22:32:42.039Z,88.00
2023-09-09T22:35:11.549Z,88.10
2023-09-09T22:37:40.516Z,88.30
2023-09-09T22:40:10.742Z,88.40
2023-09-09T22:42:38.671Z,88.40
2023-09-09T22:45:06.712Z,88.50
2023-09-09T22:47:34.562Z,88.60
2023-09-09T22:50:02.382Z,88.70
2023-09-09T22:52:30.119Z,88.90
2023-09-09T22:54:57.938Z,89.00
2023-09-09T22:57:25.649Z,89.10
2023-09-09T22:59:53.346Z,89.20
2023-09-09T23:02:21.127Z,89.30
2023-09-09T23:04:55.151Z,89.30
2023-09-09T23:07:22.896Z,89.30
2023-09-09T23:09:54.550Z,89.30
2023-09-09T23:12:23.410Z,89.30
2023-09-09T23:14:51.017Z,89.40
2023-09-09T23:17:18.778Z,89.50
2023-09-09T23:19:46.620Z,89.60
2023-09-09T23:22:14.322Z,89.70
2023-09-09T23:24:43.503Z,89.80
2023-09-09T23:27:11.179Z,89.80
2023-09-09T23:29:38.838Z,89.90
2023-09-09T23:32:07.161Z,90.00
2023-09-09T23:34:34.850Z,90.00
2023-09-09T23:37:02.514Z,90.10
2023-09-09T23:39:30.166Z,90.10
2023-09-09T23:41:57.821Z,90.20
2023-09-09T23:44:25.500Z,90.20
2023-09-09T23:46:53.388Z,90.20
2023-09-09T23:49:21.109Z,90.20
2023-09-09T23:51:48.778Z,90.30
2023-09-09T23:54:16.458Z,90.30
2023-09-09T23:56:44.097Z,90.30
2023-09-09T23:59:11.711Z,90.40
